Time;durP1;ratioP1;P1;durP2;ratioP2;P2;SDS_P1;SDS_P2;PMS_P1;PMS_P2;Temp;Humidity;BMP_temperature;BMP_pressure;BME280_temperature;BME280_humidity;BME280_pressure;Samples;Min_cycle;Max_cycle;Signal;HPM_P1;HPM_P2
2024/01/22 00:00:51;;;;;;;11.33;6.03;;;;;;;1.37;100.00;103716.38;2088240;28;20452;-68
2024/01/22 00:01:52;;;;;;;12.63;5.13;;;;;;;1.32;100.00;103719.19;2088277;28;20185;-68
2024/01/22 00:02:53;;;;;;;11.63;5.30;;;;;;;0.32;100.00;103530.31;2088380;28;20566;-68
2024/01/22 00:03:53;;;;;;;9.37;5.53;;;;;;;1.44;100.00;103705.91;2087682;28;20278;-68
2024/01/22 00:04:54;;;;;;;13.47;6.57;;;;;;;1.41;100.00;103696.38;2086963;28;20729;-68
2024/01/22 00:05:55;;;;;;;13.30;5.27;;;;;;;1.45;100.00;103710.25;2087064;28;20558;-68
2024/01/22 00:06:55;;;;;;;14.77;5.47;;;;;;;1.37;100.00;103705.44;2088998;28;20192;-68
2024/01/22 00:07:56;;;;;;;10.07;5.37;;;;;;;1.40;100.00;103713.84;2088292;28;20277;-68
2024/01/22 00:08:56;;;;;;;10.77;5.57;;;;;;;1.44;100.00;103711.38;2088035;28;20711;-68
2024/01/22 00:09:57;;;;;;;11.20;5.00;;;;;;;1.44;100.00;103714.09;2087462;28;20271;-68
2024/01/22 00:10:57;;;;;;;12.40;6.60;;;;;;;1.44;100.00;103712.16;2088181;28;20282;-68
2024/01/22 00:11:58;;;;;;;16.10;6.33;;;;;;;1.19;100.00;103684.41;2087860;28;20223;-68
2024/01/22 00:12:58;;;;;;;10.20;5.30;;;;;;;1.46;100.00;103709.16;2088158;28;20620;-68
2024/01/22 00:13:59;;;;;;;11.00;5.57;;;;;;;1.35;100.00;103689.34;2087515;28;20646;-68
2024/01/22 00:15:00;;;;;;;13.13;5.38;;;;;;;1.46;100.00;103707.25;2088638;28;20541;-68
2024/01/22 00:16:00;;;;;;;13.63;7.00;;;;;;;1.43;100.00;103701.53;2088967;28;20254;-68
2024/01/22 00:17:01;;;;;;;11.27;5.33;;;;;;;1.44;100.00;103711.38;2088445;28;20192;-68
2024/01/22 00:18:01;;;;;;;10.03;5.00;;;;;;;1.40;100.00;103713.06;2088298;28;20220;-68
2024/01/22 00:19:02;;;;;;;11.30;5.33;;;;;;;1.42;100.00;103713.56;2088016;28;20194;-68
2024/01/22 00:20:03;;;;;;;15.40;5.97;;;;;;;1.03;100.00;103651.03;2088261;28;20192;-68
2024/01/22 00:21:04;;;;;;;11.43;5.53;;;;;;;1.31;100.00;103696.53;2088104;28;20664;-68
2024/01/22 00:22:04;;;;;;;12.47;6.17;;;;;;;1.38;100.00;103712.53;2088509;28;20290;-68
2024/01/22 00:23:05;;;;;;;12.60;5.90;;;;;;;1.34;100.00;103714.25;2086952;28;20379;-68
2024/01/22 00:24:05;;;;;;;10.70;5.50;;;;;;;1.32;100.00;103716.44;2087738;28;20189;-68
2024/01/22 00:25:06;;;;;;;11.77;5.40;;;;;;;1.26;100.00;103713.00;2088103;28;20203;-68
2024/01/22 00:26:09;;;;;;;9.37;4.87;;;;;;;1.33;100.00;103707.97;2088220;28;20216;-68
2024/01/22 00:27:09;;;;;;;16.95;6.13;;;;;;;1.37;100.00;103716.38;2088104;28;20476;-68
2024/01/22 00:28:10;;;;;;;11.40;5.77;;;;;;;1.41;100.00;103712.78;2088282;28;20216;-68
2024/01/22 00:29:10;;;;;;;12.20;6.00;;;;;;;1.25;100.00;103677.78;2087950;28;20279;-67
2024/01/22 00:30:11;;;;;;;11.70;5.40;;;;;;;1.36;100.00;103710.13;2088035;28;20207;-68
2024/01/22 00:31:12;;;;;;;12.57;5.67;;;;;;;0.63;100.00;103618.84;2087685;28;20188;-68
2024/01/22 00:32:12;;;;;;;11.53;5.83;;;;;;;0.94;100.00;103688.28;2088885;28;20210;-68
2024/01/22 00:33:13;;;;;;;16.93;6.93;;;;;;;0.76;100.00;103663.69;2087353;28;20691;-68
2024/01/22 00:34:13;;;;;;;11.97;6.27;;;;;;;1.12;100.00;103712.09;2087567;28;20192;-68
2024/01/22 00:35:13;;;;;;;13.37;6.10;;;;;;;1.15;100.00;103708.78;2086735;28;20195;-68
2024/01/22 00:36:14;;;;;;;17.50;6.43;;;;;;;1.20;100.00;103703.25;2087471;28;20192;-68
2024/01/22 00:37:15;;;;;;;15.17;5.73;;;;;;;1.32;100.00;103711.00;2086771;28;20192;-68
2024/01/22 00:38:15;;;;;;;16.30;6.80;;;;;;;1.20;100.00;103684.13;2088132;28;20637;-68
2024/01/22 00:39:16;;;;;;;12.27;5.87;;;;;;;1.43;100.00;103710.53;2087758;28;20189;-68
2024/01/22 00:40:16;;;;;;;13.67;7.10;;;;;;;1.47;100.00;103713.50;2087890;28;20189;-68
2024/01/22 00:41:17;;;;;;;13.30;7.77;;;;;;;1.25;100.00;103695.00;2088018;28;20196;-68
2024/01/22 00:42:18;;;;;;;14.43;6.93;;;;;;;1.46;100.00;103703.69;2087111;28;20589;-68
2024/01/22 00:43:18;;;;;;;9.80;5.33;;;;;;;1.47;100.00;103713.50;2087269;28;20182;-68
2024/01/22 00:44:19;;;;;;;14.80;6.40;;;;;;;1.54;100.00;103722.16;2087400;28;20192;-68
2024/01/22 00:45:19;;;;;;;11.50;5.93;;;;;;;1.54;100.00;103717.47;2087765;28;20272;-68
2024/01/22 00:46:20;;;;;;;11.27;5.33;;;;;;;0.67;100.00;103584.38;2088231;28;20197;-68
2024/01/22 00:47:21;;;;;;;11.50;6.13;;;;;;;1.49;100.00;103717.56;2087786;28;20246;-68
2024/01/22 00:48:21;;;;;;;11.70;5.20;;;;;;;1.51;100.00;103717.28;2087945;28;20204;-68
2024/01/22 00:49:22;;;;;;;12.27;6.10;;;;;;;1.43;100.00;103696.88;2088345;28;20262;-68
2024/01/22 00:50:22;;;;;;;13.97;7.13;;;;;;;0.57;100.00;103554.50;2087399;28;20274;-68
2024/01/22 00:51:23;;;;;;;12.53;5.70;;;;;;;1.56;100.00;103720.75;2087008;28;20650;-68
2024/01/22 00:52:23;;;;;;;16.00;7.40;;;;;;;1.61;100.00;103715.19;2087994;28;20189;-68
2024/01/22 00:53:24;;;;;;;11.90;6.07;;;;;;;1.31;100.00;103669.22;2086507;28;20200;-68
2024/01/22 00:54:25;;;;;;;17.93;6.47;;;;;;;1.65;100.00;103727.16;2086963;28;20233;-68
2024/01/22 00:55:25;;;;;;;12.25;5.82;;;;;;;1.67;100.00;103721.38;2087771;28;20219;-68
2024/01/22 00:56:26;;;;;;;9.57;4.33;;;;;;;1.10;100.00;103628.81;2087965;28;20185;-68
2024/01/22 00:57:26;;;;;;;16.47;6.83;;;;;;;1.75;100.00;103718.78;2088434;28;20212;-68
2024/01/22 00:58:27;;;;;;;16.37;7.03;;;;;;;1.50;100.00;103686.38;2088257;28;20192;-68
2024/01/22 00:59:27;;;;;;;13.37;6.50;;;;;;;1.77;100.00;103724.78;2087630;28;20188;-68
2024/01/22 01:00:28;;;;;;;10.17;5.30;;;;;;;1.77;100.00;103726.69;2087490;28;20661;-68
2024/01/22 01:01:31;;;;;;;11.70;5.97;;;;;;;1.74;100.00;103727.28;2087636;28;20308;-68
2024/01/22 01:02:32;;;;;;;13.90;6.45;;;;;;;1.69;100.00;103721.91;2088340;28;20211;-68
2024/01/22 01:03:32;;;;;;;16.37;6.03;;;;;;;1.76;100.00;103719.59;2086965;28;20184;-68
2024/01/22 01:04:33;;;;;;;13.93;7.30;;;;;;;1.73;100.00;103721.00;2087683;28;20184;-68
2024/01/22 01:05:33;;;;;;;14.53;6.03;;;;;;;1.31;100.00;103652.81;2087008;28;20253;-68
2024/01/22 01:06:34;;;;;;;12.80;5.40;;;;;;;1.67;100.00;103729.59;2088655;28;20284;-68
2024/01/22 01:07:35;;;;;;;12.60;6.93;;;;;;;1.60;100.00;103719.03;2087651;28;20185;-68
2024/01/22 01:08:35;;;;;;;13.90;7.03;;;;;;;1.57;100.00;103713.34;2088017;28;20188;-68
2024/01/22 01:09:36;;;;;;;16.97;6.83;;;;;;;1.50;100.00;103719.19;2087552;28;20188;-68
2024/01/22 01:10:37;;;;;;;17.63;6.50;;;;;;;1.14;100.00;103659.91;2088129;28;20188;-68
2024/01/22 01:11:37;;;;;;;17.37;6.73;;;;;;;1.48;100.00;103718.66;2087387;28;20199;-68
2024/01/22 01:12:38;;;;;;;14.63;5.73;;;;;;;0.98;100.00;103639.38;2087674;28;20267;-68
2024/01/22 01:13:38;;;;;;;18.77;7.40;;;;;;;0.98;100.00;103640.19;2086733;28;20184;-68
2024/01/22 01:14:39;;;;;;;11.93;4.53;;;;;;;1.39;100.00;103709.50;2088227;28;20204;-68
2024/01/22 01:15:39;;;;;;;16.83;6.20;;;;;;;1.42;100.00;103716.31;2087788;28;20192;-68
2024/01/22 01:16:40;;;;;;;15.30;5.97;;;;;;;1.42;100.00;103708.09;2087838;28;20192;-68
2024/01/22 01:17:40;;;;;;;10.63;5.77;;;;;;;1.37;100.00;103710.91;2087640;28;20200;-68
2024/01/22 01:18:41;;;;;;;15.70;6.50;;;;;;;0.87;100.00;103635.16;2087875;28;20260;-68
2024/01/22 01:19:41;;;;;;;13.93;7.43;;;;;;;1.36;100.00;103710.13;2086967;28;20201;-68
2024/01/22 01:20:42;;;;;;;14.03;5.97;;;;;;;1.40;100.00;103710.34;2087636;28;20194;-68
2024/01/22 01:21:42;;;;;;;14.07;6.80;;;;;;;1.40;100.00;103708.41;2087639;28;20200;-68
2024/01/22 01:22:43;;;;;;;13.63;6.53;;;;;;;1.42;100.00;103708.09;2087921;28;20236;-68
2024/01/22 01:23:43;;;;;;;15.00;6.67;;;;;;;1.36;100.00;103709.28;2085791;28;20229;-68
2024/01/22 01:24:44;;;;;;;14.47;6.50;;;;;;;1.31;100.00;103703.91;2087435;28;20287;-68
2024/01/22 01:25:44;;;;;;;14.10;5.57;;;;;;;1.36;100.00;103714.75;2087646;28;20641;-68
2024/01/22 01:26:47;;;;;;;16.07;7.03;;;;;;;1.37;100.00;103711.75;2087725;28;20649;-68
2024/01/22 01:27:48;;;;;;;13.55;6.32;;;;;;;1.38;100.00;103716.09;2087555;28;20200;-68
2024/01/22 01:28:48;;;;;;;13.87;7.33;;;;;;;1.37;100.00;103710.91;2087784;28;20688;-68
2024/01/22 01:29:49;;;;;;;17.37;6.63;;;;;;;1.38;100.00;103702.44;2086493;28;20196;-68
2024/01/22 01:30:49;;;;;;;13.83;6.70;;;;;;;1.38;100.00;103710.63;2088220;28;20216;-68
2024/01/22 01:31:50;;;;;;;11.77;5.37;;;;;;;1.34;100.00;103712.31;2095535;28;20192;-68
2024/01/22 01:32:50;;;;;;;12.87;5.67;;;;;;;1.23;100.00;103694.44;2094842;28;20219;-68
2024/01/22 01:33:51;;;;;;;13.80;5.90;;;;;;;1.31;100.00;103701.16;2102899;28;20195;-68
2024/01/22 01:34:51;;;;;;;11.90;5.80;;;;;;;0.91;100.00;103625.28;2102962;28;20195;-68
2024/01/22 01:35:52;;;;;;;14.47;6.80;;;;;;;0.51;100.00;103563.06;2087726;28;20193;-68
2024/01/22 01:36:52;;;;;;;19.47;7.97;;;;;;;1.44;100.00;103709.44;2087629;28;20684;-68
2024/01/22 01:37:53;;;;;;;16.70;8.27;;;;;;;1.39;100.00;103709.50;2087648;28;20212;-68
2024/01/22 01:38:53;;;;;;;14.50;7.10;;;;;;;1.32;100.00;103694.59;2087454;28;20253;-68
2024/01/22 01:39:54;;;;;;;15.03;6.83;;;;;;;1.45;100.00;103705.59;2088426;28;20195;-68
2024/01/22 01:40:54;;;;;;;14.30;6.70;;;;;;;1.52;100.00;103703.31;2087432;28;20203;-68
2024/01/22 01:41:55;;;;;;;14.53;5.80;;;;;;;1.55;100.00;103696.44;2087675;28;20196;-68
2024/01/22 01:42:55;;;;;;;14.87;6.33;;;;;;;1.55;100.00;103699.97;2087691;28;20196;-68
2024/01/22 01:43:56;;;;;;;13.30;6.33;;;;;;;1.34;100.00;103692.41;2086899;28;20207;-68
2024/01/22 01:44:56;;;;;;;13.73;6.13;;;;;;;1.51;100.00;103703.59;2087208;28;20327;-68
2024/01/22 01:45:57;;;;;;;16.10;7.77;;;;;;;1.14;100.00;103627.91;2087668;28;20734;-68
2024/01/22 01:46:57;;;;;;;15.17;7.07;;;;;;;1.56;100.00;103695.31;2087140;28;20248;-68
2024/01/22 01:47:58;;;;;;;15.00;6.03;;;;;;;1.55;100.00;103699.97;2088133;28;20242;-68
2024/01/22 01:48:59;;;;;;;16.45;5.85;;;;;;;1.08;100.00;103631.84;2087159;28;20770;-68
2024/01/22 01:50:00;;;;;;;14.97;6.37;;;;;;;1.54;100.00;103700.28;2086400;28;20697;-68
2024/01/22 01:51:01;;;;;;;13.60;6.23;;;;;;;1.54;100.00;103694.81;2086199;28;20196;-68
2024/01/22 01:52:02;;;;;;;17.52;7.07;;;;;;;1.59;100.00;103702.94;2087307;28;20195;-68
2024/01/22 01:53:03;;;;;;;13.25;6.05;;;;;;;0.81;100.00;103568.09;2086752;28;20196;-68
2024/01/22 01:54:05;;;;;;;14.93;7.22;;;;;;;1.52;100.00;103675.97;2087391;28;20462;-68
2024/01/22 01:55:07;;;;;;;12.45;6.30;;;;;;;1.65;100.00;103690.81;2087248;28;20184;-68
2024/01/22 01:56:08;;;;;;;16.20;6.40;;;;;;;1.60;100.00;103688.94;2087402;28;20283;-68
2024/01/22 01:57:10;;;;;;;13.68;6.53;;;;;;;1.60;100.00;103697.16;2088093;28;20182;-68
2024/01/22 01:58:11;;;;;;;13.52;6.88;;;;;;;1.59;100.00;103689.28;2087916;28;20676;-68
2024/01/22 01:59:12;;;;;;;14.13;6.63;;;;;;;1.62;100.00;103692.22;2087315;28;20193;-68
2024/01/22 02:00:13;;;;;;;16.00;6.63;;;;;;;1.58;100.00;103693.91;2087351;28;20185;-68
2024/01/22 02:01:15;;;;;;;14.35;6.55;;;;;;;1.12;100.00;103616.50;2086027;28;20196;-68
2024/01/22 02:02:16;;;;;;;17.15;7.03;;;;;;;1.52;100.00;103672.41;2086955;28;20196;-68
2024/01/22 02:03:16;;;;;;;13.67;6.17;;;;;;;1.63;100.00;103687.53;2086677;28;20276;-68
2024/01/22 02:04:17;;;;;;;12.23;6.17;;;;;;;1.66;100.00;103693.25;2086193;28;20196;-68
2024/01/22 02:05:18;;;;;;;13.67;6.07;;;;;;;1.69;100.00;103694.56;2087516;28;20771;-68
2024/01/22 02:06:18;;;;;;;15.50;7.57;;;;;;;1.65;100.00;103688.88;2086979;28;20192;-68
2024/01/22 02:07:19;;;;;;;14.87;6.13;;;;;;;1.70;100.00;103690.72;2086042;28;20188;-68
2024/01/22 02:08:19;;;;;;;12.50;5.53;;;;;;;1.72;100.00;103692.06;2086967;28;20221;-68
2024/01/22 02:09:20;;;;;;;17.27;7.20;;;;;;;1.73;100.00;103692.84;2087522;28;20196;-68
2024/01/22 02:10:20;;;;;;;16.80;6.37;;;;;;;1.73;100.00;103692.84;2086381;28;20223;-68
2024/01/22 02:11:22;;;;;;;15.93;6.40;;;;;;;1.72;100.00;103685.75;2087491;28;20211;-68
2024/01/22 02:12:23;;;;;;;13.55;6.88;;;;;;;1.71;100.00;103686.88;2087329;28;20220;-68
2024/01/22 02:13:25;;;;;;;12.83;6.13;;;;;;;1.63;100.00;103691.09;2086313;28;20191;-68
2024/01/22 02:14:26;;;;;;;17.35;6.72;;;;;;;1.30;100.00;103639.44;2087387;28;20576;-68
2024/01/22 02:15:26;;;;;;;15.50;6.60;;;;;;;1.68;100.00;103687.47;2087431;28;20192;-68
2024/01/22 02:16:27;;;;;;;13.13;6.33;;;;;;;1.67;100.00;103689.41;2087772;28;20749;-68
2024/01/22 02:17:27;;;;;;;13.80;5.90;;;;;;;1.70;100.00;103685.25;2086054;28;20197;-68
2024/01/22 02:18:28;;;;;;;12.80;6.00;;;;;;;1.69;100.00;103684.44;2087578;28;20192;-68
2024/01/22 02:19:28;;;;;;;18.60;7.43;;;;;;;1.75;100.00;103687.91;2087137;28;20338;-68
2024/01/22 02:20:29;;;;;;;14.27;7.37;;;;;;;1.15;100.00;103607.72;2087197;28;20192;-68
2024/01/22 02:21:30;;;;;;;11.20;5.87;;;;;;;1.71;100.00;103675.94;2086673;28;20188;-68
2024/01/22 02:22:30;;;;;;;14.80;7.07;;;;;;;1.80;100.00;103690.56;2088270;28;20241;-68
2024/01/22 02:23:31;;;;;;;16.13;6.80;;;;;;;1.79;100.00;103687.00;2086505;28;20239;-68
2024/01/22 02:24:31;;;;;;;15.90;7.13;;;;;;;1.79;100.00;103680.69;2086061;28;20288;-68
2024/01/22 02:25:32;;;;;;;13.50;6.13;;;;;;;1.81;100.00;103689.44;2087471;28;20195;-68
2024/01/22 02:26:32;;;;;;;16.23;5.90;;;;;;;1.78;100.00;103688.13;2087675;28;20200;-68
2024/01/22 02:27:33;;;;;;;14.80;6.53;;;;;;;1.78;100.00;103688.13;2087020;28;20326;-68
2024/01/22 02:28:33;;;;;;;17.67;7.50;;;;;;;1.80;100.00;103690.56;2086762;28;20188;-68
2024/01/22 02:29:34;;;;;;;17.10;6.10;;;;;;;1.80;100.00;103698.75;2086888;28;20197;-68
2024/01/22 02:30:34;;;;;;;16.63;6.83;;;;;;;1.80;100.00;103693.28;2087196;28;20185;-68
2024/01/22 02:31:35;;;;;;;13.27;5.73;;;;;;;1.73;100.00;103690.94;2087872;28;20172;-68
2024/01/22 02:32:35;;;;;;;14.07;6.13;;;;;;;1.29;100.00;103621.44;2087422;28;20220;-68
2024/01/22 02:33:36;;;;;;;13.40;6.30;;;;;;;1.79;100.00;103713.53;2086493;28;20185;-68
2024/01/22 02:34:37;;;;;;;15.47;6.87;;;;;;;1.71;100.00;103695.06;2087203;28;20189;-68
2024/01/22 02:35:38;;;;;;;15.15;6.78;;;;;;;0.92;100.00;103588.66;2086505;28;20190;-68
2024/01/22 02:36:38;;;;;;;18.13;6.60;;;;;;;1.65;100.00;103693.53;2086933;28;20291;-68
2024/01/22 02:37:39;;;;;;;15.00;6.67;;;;;;;1.66;100.00;103693.25;2086952;28;20182;-68
2024/01/22 02:38:39;;;;;;;12.97;6.60;;;;;;;1.67;100.00;103683.94;2086826;28;20176;-68
2024/01/22 02:39:40;;;;;;;16.03;6.80;;;;;;;1.67;100.00;103689.41;2087293;28;20200;-68
2024/01/22 02:40:41;;;;;;;16.30;7.37;;;;;;;1.63;100.00;103691.09;2086952;28;20195;-68
2024/01/22 02:41:41;;;;;;;15.90;6.80;;;;;;;1.05;100.00;103605.13;2086812;28;20191;-68
2024/01/22 02:42:42;;;;;;;14.27;6.97;;;;;;;1.70;100.00;103683.31;2086893;28;20190;-68
2024/01/22 02:43:43;;;;;;;20.97;8.20;;;;;;;1.64;100.00;103675.53;2085630;28;20701;-68
2024/01/22 02:44:45;;;;;;;17.23;7.93;;;;;;;1.37;100.00;103634.41;2086781;28;20534;-68
2024/01/22 02:45:47;;;;;;;15.05;7.18;;;;;;;1.76;100.00;103684.84;2087278;28;20176;-68
2024/01/22 02:46:47;;;;;;;22.05;8.32;;;;;;;1.77;100.00;103689.22;2087230;28;20186;-68
2024/01/22 02:47:48;;;;;;;21.20;9.47;;;;;;;1.81;100.00;103690.22;2087133;28;20177;-68
2024/01/22 02:48:48;;;;;;;21.50;8.63;;;;;;;1.80;100.00;103680.41;2087177;28;20185;-68
2024/01/22 02:49:49;;;;;;;22.30;8.43;;;;;;;1.84;100.00;103688.81;2086629;28;20426;-68
2024/01/22 02:50:50;;;;;;;18.60;7.77;;;;;;;1.82;100.00;103685.59;2086463;28;20205;-68
2024/01/22 02:51:50;;;;;;;13.50;6.57;;;;;;;0.85;100.00;103542.66;2087177;28;20251;-68
2024/01/22 02:52:51;;;;;;;13.57;6.90;;;;;;;1.68;100.00;103677.34;2087063;28;20759;-68
2024/01/22 02:53:53;;;;;;;15.77;6.87;;;;;;;1.53;100.00;103668.56;2086112;28;20189;-68
2024/01/22 02:54:53;;;;;;;13.60;7.10;;;;;;;1.69;100.00;103680.91;2086110;28;21039;-68
2024/01/22 02:55:54;;;;;;;18.57;6.93;;;;;;;1.69;100.00;103689.09;2086774;28;20230;-68
2024/01/22 02:56:54;;;;;;;12.50;5.90;;;;;;;1.66;100.00;103692.44;2087380;28;20191;-68
2024/01/22 02:57:55;;;;;;;15.73;7.17;;;;;;;1.60;100.00;103690.88;2087584;28;20256;-68
2024/01/22 02:58:56;;;;;;;17.17;6.77;;;;;;;1.57;100.00;103692.28;2086556;28;20569;-68
2024/01/22 02:59:56;;;;;;;15.33;7.07;;;;;;;1.59;100.00;103687.34;2087066;28;20176;-68
2024/01/22 03:00:57;;;;;;;13.27;5.77;;;;;;;1.58;100.00;103685.72;2086466;28;20436;-68
2024/01/22 03:01:58;;;;;;;16.83;8.57;;;;;;;1.58;100.00;103685.72;2086775;28;20194;-68
2024/01/22 03:02:58;;;;;;;17.97;8.60;;;;;;;1.44;100.00;103668.44;2086988;28;20271;-68
2024/01/22 03:03:58;;;;;;;18.67;7.40;;;;;;;1.56;100.00;103679.75;2087943;28;20176;-68
2024/01/22 03:04:59;;;;;;;15.00;6.00;;;;;;;1.57;100.00;103677.81;2089020;28;20181;-68
2024/01/22 03:05:59;;;;;;;19.07;7.17;;;;;;;1.56;100.00;103674.28;2088974;28;20240;-68
2024/01/22 03:07:00;;;;;;;15.47;7.63;;;;;;;1.38;100.00;103639.56;2088628;28;20196;-68
2024/01/22 03:08:00;;;;;;;17.47;6.10;;;;;;;1.59;100.00;103673.66;2088859;28;20208;-68
2024/01/22 03:09:01;;;;;;;15.07;6.70;;;;;;;0.70;100.00;103517.47;2088516;28;20188;-68
2024/01/22 03:10:02;;;;;;;13.57;7.00;;;;;;;1.64;100.00;103672.78;2088267;28;20288;-68
2024/01/22 03:11:02;;;;;;;13.85;6.47;;;;;;;1.64;100.00;103670.06;2088613;28;20176;-68
2024/01/22 03:12:03;;;;;;;18.57;6.67;;;;;;;0.46;100.00;103476.63;2088404;28;20219;-68
2024/01/22 03:13:04;;;;;;;15.73;6.97;;;;;;;1.64;100.00;103668.13;2088421;28;20182;-68
2024/01/22 03:14:06;;;;;;;17.33;6.28;;;;;;;1.61;100.00;103667.91;2088503;28;20201;-68
2024/01/22 03:15:07;;;;;;;15.52;6.50;;;;;;;1.51;100.00;103663.44;2088095;28;20186;-68
2024/01/22 03:16:07;;;;;;;13.03;6.43;;;;;;;1.59;100.00;103672.88;2089607;28;20186;-68
2024/01/22 03:17:09;;;;;;;16.67;7.40;;;;;;;1.60;100.00;103663.56;2088481;28;20180;-68
2024/01/22 03:18:10;;;;;;;14.80;7.40;;;;;;;1.60;100.00;103669.81;2088345;28;20180;-69
2024/01/22 03:19:10;;;;;;;20.60;8.27;;;;;;;1.61;100.00;103671.47;2088712;28;20186;-68
2024/01/22 03:20:13;;;;;;;17.10;7.03;;;;;;;1.28;100.00;103623.34;2088650;28;20284;-68
2024/01/22 03:21:14;;;;;;;15.95;6.72;;;;;;;1.57;100.00;103675.91;2088434;28;20196;-68
2024/01/22 03:22:15;;;;;;;16.30;7.45;;;;;;;1.02;100.00;103577.59;2088624;28;20180;-69
2024/01/22 03:23:15;;;;;;;19.13;7.80;;;;;;;1.51;100.00;103666.16;2087818;28;20259;-68
2024/01/22 03:24:16;;;;;;;14.70;7.00;;;;;;;1.45;100.00;103672.00;2088957;28;20180;-68
2024/01/22 03:25:16;;;;;;;18.03;7.37;;;;;;;1.29;100.00;103671.41;2088883;28;20219;-68
2024/01/22 03:26:21;;;;;;;21.27;7.27;;;;;;;1.17;100.00;103673.78;2088720;28;20265;-68
2024/01/22 03:27:22;;;;;;;15.82;8.25;;;;;;;0.20;100.00;103523.66;2088460;28;20687;-68
2024/01/22 03:28:22;;;;;;;11.70;5.97;;;;;;;0.65;100.00;103602.16;2088737;28;20635;-68
2024/01/22 03:29:23;;;;;;;14.20;6.97;;;;;;;1.03;100.00;103675.63;2088289;28;20212;-68
2024/01/22 03:30:23;;;;;;;14.10;5.83;;;;;;;1.06;100.00;103677.78;2088384;28;20234;-68
2024/01/22 03:31:26;;;;;;;12.37;5.80;;;;;;;0.90;100.00;103649.06;2088407;28;20180;-68
2024/01/22 03:32:27;;;;;;;18.30;6.85;;;;;;;0.89;100.00;103663.78;2087696;28;20177;-68
2024/01/22 03:33:28;;;;;;;14.27;7.20;;;;;;;0.84;100.00;103654.88;2087739;28;20184;-68
2024/01/22 03:34:28;;;;;;;17.87;10.10;;;;;;;1.06;100.00;103682.41;2089105;28;20264;-68
2024/01/22 03:35:29;;;;;;;18.17;7.53;;;;;;;1.00;100.00;103664.47;2088383;28;20256;-68
2024/01/22 03:36:29;;;;;;;18.83;8.13;;;;;;;1.05;100.00;103683.53;2088618;28;20247;-68
2024/01/22 03:37:30;;;;;;;18.07;8.43;;;;;;;1.00;100.00;103670.75;2088537;28;20224;-68
2024/01/22 03:38:30;;;;;;;13.50;5.63;;;;;;;1.05;100.00;103683.53;2087802;28;20186;-68
2024/01/22 03:39:31;;;;;;;12.87;6.03;;;;;;;1.02;100.00;103684.94;2088589;28;20676;-68
2024/01/22 03:40:32;;;;;;;14.73;7.30;;;;;;;0.89;100.00;103680.16;2088576;28;20173;-68
2024/01/22 03:41:33;;;;;;;17.53;8.70;;;;;;;0.76;100.00;103683.63;2088263;28;20184;-68
2024/01/22 03:42:34;;;;;;;16.17;7.80;;;;;;;-0.10;100.00;103548.59;2089477;28;20200;-68
2024/01/22 03:43:34;;;;;;;15.87;8.30;;;;;;;0.69;100.00;103679.63;2087247;28;20207;-68
2024/01/22 03:44:35;;;;;;;24.30;9.27;;;;;;;-0.47;100.00;103483.84;2087837;28;20189;-68
2024/01/22 03:45:35;;;;;;;12.77;6.50;;;;;;;0.20;100.00;103583.66;2088330;28;20525;-68
2024/01/22 03:46:36;;;;;;;14.93;8.30;;;;;;;0.60;100.00;103648.63;2088808;28;20275;-68
2024/01/22 03:47:37;;;;;;;19.33;8.37;;;;;;;0.71;100.00;103685.59;2088375;28;20271;-68
2024/01/22 03:48:38;;;;;;;13.43;6.65;;;;;;;0.56;100.00;103675.69;2088678;28;20184;-68
2024/01/22 03:49:38;;;;;;;16.87;8.37;;;;;;;0.57;100.00;103690.16;2087755;28;20255;-68
2024/01/22 03:50:39;;;;;;;17.40;8.60;;;;;;;0.04;100.00;103621.22;2089258;28;20458;-68
2024/01/22 03:51:39;;;;;;;20.10;9.43;;;;;;;0.45;100.00;103692.47;2088429;28;20192;-68
2024/01/22 03:52:39;;;;;;;13.83;7.43;;;;;;;0.42;100.00;103669.31;2087938;28;20194;-68
2024/01/22 03:53:40;;;;;;;15.70;8.30;;;;;;;0.58;100.00;103695.31;2087669;28;20193;-68
2024/01/22 03:54:41;;;;;;;19.47;9.03;;;;;;;0.53;100.00;103679.00;2088177;28;20184;-68
2024/01/22 03:55:41;;;;;;;17.77;8.63;;;;;;;-0.30;100.00;103576.06;2088507;28;20275;-68
2024/01/22 03:56:43;;;;;;;12.03;6.60;;;;;;;0.51;100.00;103685.84;2088277;28;20180;-68
2024/01/22 03:57:43;;;;;;;18.98;8.55;;;;;;;0.52;100.00;103691.03;2088396;28;20693;-68
2024/01/22 03:58:44;;;;;;;15.53;8.20;;;;;;;0.51;100.00;103683.13;2088541;28;20576;-68
2024/01/22 03:59:46;;;;;;;15.37;7.77;;;;;;;-0.42;100.00;103553.81;2089056;28;20181;-68
2024/01/22 04:00:47;;;;;;;17.92;8.77;;;;;;;0.57;100.00;103692.91;2088377;28;20184;-68
2024/01/22 04:01:47;;;;;;;18.07;8.30;;;;;;;0.47;100.00;103691.09;2088354;28;20191;-68
2024/01/22 04:02:48;;;;;;;14.80;7.53;;;;;;;-0.11;100.00;103615.09;2088379;28;20567;-68
2024/01/22 04:03:50;;;;;;;17.00;8.17;;;;;;;0.44;100.00;103724.41;2086756;28;20181;-68
2024/01/22 04:04:52;;;;;;;18.35;7.85;;;;;;;0.37;100.00;103693.13;2087295;28;20308;-68
2024/01/22 04:05:52;;;;;;;15.95;7.53;;;;;;;0.47;100.00;103688.34;2087909;28;20359;-68
2024/01/22 04:06:53;;;;;;;18.07;8.47;;;;;;;0.25;100.00;103655.34;2088195;28;20188;-68
2024/01/22 04:07:53;;;;;;;14.20;7.50;;;;;;;0.40;100.00;103690.63;2089078;28;20240;-68
2024/01/22 04:08:54;;;;;;;17.23;7.97;;;;;;;-0.61;100.00;103533.88;2088385;28;20242;-69
2024/01/22 04:09:54;;;;;;;17.47;8.70;;;;;;;0.28;100.00;103670.31;2088634;28;20255;-68
2024/01/22 04:10:55;;;;;;;8.53;5.50;;;;;;;0.35;100.00;103692.59;2088255;28;20246;-69
2024/01/22 04:11:55;;;;;;;11.37;5.93;;;;;;;0.30;100.00;103684.47;2088345;28;20728;-68
2024/01/22 04:12:56;;;;;;;15.67;6.97;;;;;;;0.27;100.00;103691.31;2087080;28;20199;-68
2024/01/22 04:13:56;;;;;;;16.20;7.23;;;;;;;0.26;100.00;103691.63;2087483;28;20196;-68
2024/01/22 04:14:57;;;;;;;14.93;6.93;;;;;;;0.19;100.00;103691.94;2086552;28;20180;-68
2024/01/22 04:15:57;;;;;;;16.97;7.97;;;;;;;0.18;100.00;103695.78;2088106;28;20185;-69
2024/01/22 04:16:58;;;;;;;17.90;8.33;;;;;;;0.18;100.00;103703.13;2088864;28;20271;-69
2024/01/22 04:17:58;;;;;;;17.27;8.33;;;;;;;0.26;100.00;103707.97;2088276;28;20180;-68
2024/01/22 04:18:59;;;;;;;16.80;7.70;;;;;;;0.19;100.00;103710.22;2088206;28;20215;-68
2024/01/22 04:19:59;;;;;;;14.93;8.03;;;;;;;0.15;100.00;103710.00;2088106;28;20192;-68
2024/01/22 04:21:00;;;;;;;15.83;7.00;;;;;;;-0.05;100.00;103707.44;2087978;28;20188;-68
2024/01/22 04:22:03;;;;;;;15.02;7.60;;;;;;;-0.06;100.00;103705.81;2088167;28;20603;-68
2024/01/22 04:23:03;;;;;;;14.73;7.53;;;;;;;-0.08;100.00;103708.03;2087726;28;20184;-68
2024/01/22 04:24:04;;;;;;;14.47;7.60;;;;;;;-0.27;100.00;103698.09;2087585;28;20234;-68
2024/01/22 04:25:05;;;;;;;17.60;8.57;;;;;;;-0.24;100.00;103708.44;2088176;28;20642;-68
2024/01/22 04:26:06;;;;;;;18.00;8.23;;;;;;;-0.37;100.00;103728.16;2087463;28;20632;-68
2024/01/22 04:27:06;;;;;;;17.90;8.00;;;;;;;-0.26;100.00;103707.91;2087915;28;20665;-68
2024/01/22 04:28:07;;;;;;;14.97;7.50;;;;;;;-0.15;100.00;103702.09;2088207;28;20258;-68
2024/01/22 04:29:07;;;;;;;17.10;8.33;;;;;;;-0.08;100.00;103710.75;2088128;28;20204;-68
2024/01/22 04:30:08;;;;;;;18.40;8.30;;;;;;;-0.09;100.00;103720.03;2088060;28;20223;-68
2024/01/22 04:31:09;;;;;;;16.53;7.60;;;;;;;-0.14;100.00;103713.81;2087604;28;20177;-68
2024/01/22 04:32:09;;;;;;;13.33;6.67;;;;;;;-0.16;100.00;103707.81;2088102;28;20454;-68
2024/01/22 04:33:10;;;;;;;16.13;7.97;;;;;;;-0.70;100.00;103626.25;2086867;28;20263;-69
2024/01/22 04:34:10;;;;;;;16.37;8.47;;;;;;;-0.03;100.00;103715.34;2086767;28;20203;-68
2024/01/22 04:35:11;;;;;;;15.07;7.97;;;;;;;-0.02;100.00;103706.88;2087490;28;20192;-68
2024/01/22 04:36:11;;;;;;;14.13;7.53;;;;;;;0.03;100.00;103709.56;2088395;28;20642;-68
2024/01/22 04:37:12;;;;;;;14.47;7.63;;;;;;;0.05;100.00;103711.97;2087816;28;20253;-68
2024/01/22 04:38:13;;;;;;;13.70;5.93;;;;;;;0.15;100.00;103711.88;2088155;28;20192;-69
2024/01/22 04:39:13;;;;;;;12.07;5.87;;;;;;;0.16;100.00;103702.63;2087902;28;20186;-69